This is the latest recevied weather packets stored in our database for station/object KN6CRX. If no packets are shown the sender has not sent any weather packets the latest 10 day(s).
| Time | Temp. | Humidity | Pressure | Rain* | Wind** | Luminosity | Snow |
|---|---|---|---|---|---|---|---|
| 1788127280 | 79° F | 29% | 764 mmHg | 0 in | - | 696 W/m² | - |
| 1788126979 | 78° F | 28% | 764 mmHg | 0 in | - | 621 W/m² | - |
| 1788126673 | 79° F | 31% | 764.1 mmHg | 0 in | - | 547 W/m² | - |
| 1788126369 | 79° F | 31% | 764.3 mmHg | 0 in | - | 847 W/m² | - |
| 1788126064 | 78° F | 30% | 764.3 mmHg | 0 in | - | 392 W/m² | - |
| 1788125763 | 76° F | 31% | 764.4 mmHg | 0 in | - | 865 W/m² | - |
| 1788125459 | 78° F | 32% | 764.4 mmHg | 0 in | - | 197 W/m² | - |
| 1788125155 | 79° F | 30% | 764.5 mmHg | 0 in | - | 141 W/m² | - |
| 1788124855 | 79° F | 35% | 764.4 mmHg | 0 in | - | 234 W/m² | - |
| 1788124550 | 77° F | 34% | 764.5 mmHg | 0 in | - | 798 W/m² | - |
| 1788124250 | 77° F | 36% | 764.6 mmHg | 0 in | - | 174 W/m² | - |
| 1788123945 | 77° F | 36% | 764.5 mmHg | 0 in | - | 120 W/m² | - |
| 1788123644 | 75° F | 39% | 764.4 mmHg | 0 in | - | 878 W/m² | - |
| 1788123342 | 75° F | 37% | 764.5 mmHg | 0 in | - | 169 W/m² | - |
| 1788123037 | 77° F | 38% | 764.5 mmHg | 0 in | - | 169 W/m² | - |
| 1788122736 | 77° F | 39% | 764.5 mmHg | 0 in | - | 183 W/m² | - |
| 1788122436 | 76° F | 40% | 764.5 mmHg | 0 in | - | 404 W/m² | - |
| 1788122133 | 77° F | 38% | 764.5 mmHg | 0 in | - | 126 W/m² | - |
| 1788121833 | 79° F | 37% | 764.5 mmHg | 0 in | - | 195 W/m² | - |
| 1788121533 | 79° F | 37% | 764.5 mmHg | 0 in | - | 819 W/m² | - |
| 1788121229 | 79° F | 35% | 764.7 mmHg | 0 in | - | 920 W/m² | - |
| 1788120928 | 78° F | 38% | 764.6 mmHg | 0 in | - | 869 W/m² | - |
| 1788120623 | 77° F | 41% | 764.6 mmHg | 0 in | - | 858 W/m² | - |
| 1788120318 | 77° F | 37% | 764.8 mmHg | 0 in | - | 883 W/m² | - |
| 1788120017 | 77° F | 42% | 764.7 mmHg | 0 in | - | 744 W/m² | - |
* Rain latest hour (hover to see other rain measurements)
** Current wind speed in m/s (hover to see current wind gust speed)